Time;durP1;ratioP1;P1;durP2;ratioP2;P2;SDS_P1;SDS_P2;PMS_P1;PMS_P2;Temp;Humidity;BMP_temperature;BMP_pressure;BME280_temperature;BME280_humidity;BME280_pressure;Samples;Min_cycle;Max_cycle;Signal;HPM_P1;HPM_P2
2021/05/15 00:01:48;;;;;;;;;;;9.00;99.90;;;;;;5082477;28;19908;-72
2021/05/15 00:04:14;;;;;;;;;;;8.90;99.90;;;;;;5078795;28;20001;-72
2021/05/15 00:06:40;;;;;;;;;;;8.90;99.90;;;;;;5077217;28;19913;-72
2021/05/15 00:09:06;;;;;;;;;;;8.90;99.90;;;;;;5075334;28;19954;-72
2021/05/15 00:11:32;;;;;;;;;;;8.90;99.90;;;;;;5086441;28;19913;-72
2021/05/15 00:13:57;;;;;;;;;;;8.80;99.90;;;;;;5072727;28;19912;-74
2021/05/15 00:16:22;;;;;;;;;;;8.80;99.90;;;;;;5073324;28;20015;-72
2021/05/15 00:18:48;;;;;;;;;;;8.80;99.90;;;;;;5074641;28;19913;-72
2021/05/15 00:21:14;;;;;;;;;;;8.80;99.90;;;;;;5075259;28;19962;-72
2021/05/15 00:23:39;;;;;;;;;;;8.80;99.90;;;;;;5074430;28;20289;-72
2021/05/15 00:26:05;;;;;;;;;;;8.80;99.90;;;;;;5072183;28;19909;-72
2021/05/15 00:28:31;;;;;;;;;;;8.80;99.90;;;;;;5072443;28;20259;-72
2021/05/15 00:30:57;;;;;;;;;;;8.80;99.90;;;;;;5074478;28;19915;-72
2021/05/15 00:33:22;;;;;;;;;;;8.80;99.90;;;;;;5093252;28;20002;-72
2021/05/15 00:35:48;;;;;;;;;;;8.70;99.90;;;;;;5114695;28;19998;-72
2021/05/15 00:38:14;;;;;;;;;;;8.70;99.90;;;;;;5114750;28;19968;-74
2021/05/15 00:40:39;;;;;;;;;;;8.70;99.90;;;;;;5113779;28;19951;-72
2021/05/15 00:43:07;;;;;;;;;;;8.60;99.90;;;;;;5114931;28;19961;-72
2021/05/15 00:45:33;;;;;;;;;;;8.60;99.90;;;;;;5114716;28;20384;-72
2021/05/15 00:47:58;;;;;;;;;;;8.60;99.90;;;;;;5114380;28;19907;-72
2021/05/15 00:50:24;;;;;;;;;;;8.60;99.90;;;;;;5114770;28;19984;-72
2021/05/15 00:52:49;;;;;;;;;;;8.50;99.90;;;;;;5114661;28;19908;-71
2021/05/15 00:55:15;;;;;;;;;;;8.50;99.90;;;;;;5115032;28;19946;-71
2021/05/15 00:57:41;;;;;;;;;;;8.40;99.90;;;;;;5114158;28;19912;-71
2021/05/15 01:00:08;;;;;;;;;;;8.40;99.90;;;;;;5114497;28;19914;-71
2021/05/15 01:02:33;;;;;;;;;;;8.40;99.90;;;;;;5104391;28;19919;-71
2021/05/15 01:04:59;;;;;;;;;;;8.30;99.90;;;;;;5094183;28;20288;-71
2021/05/15 01:07:24;;;;;;;;;;;8.30;99.90;;;;;;5092273;28;19909;-71
2021/05/15 01:09:50;;;;;;;;;;;8.20;99.90;;;;;;5094144;28;19909;-71
2021/05/15 01:12:15;;;;;;;;;;;8.20;99.90;;;;;;5093803;28;19908;-71
2021/05/15 01:14:41;;;;;;;;;;;8.10;99.90;;;;;;5093967;28;19919;-71
2021/05/15 01:17:08;;;;;;;;;;;8.10;99.90;;;;;;5093351;28;20011;-71
2021/05/15 01:19:33;;;;;;;;;;;8.00;99.90;;;;;;5093548;28;19913;-71
2021/05/15 01:21:59;;;;;;;;;;;7.90;99.90;;;;;;5093829;28;19914;-71
2021/05/15 01:24:24;;;;;;;;;;;7.80;99.90;;;;;;5093657;28;19912;-72
2021/05/15 01:26:50;;;;;;;;;;;7.70;99.90;;;;;;5093206;28;20011;-71
2021/05/15 01:29:16;;;;;;;;;;;7.70;99.90;;;;;;5093735;28;19961;-71
2021/05/15 01:31:41;;;;;;;;;;;7.70;99.90;;;;;;5097304;28;19912;-71
2021/05/15 01:34:07;;;;;;;;;;;7.50;99.90;;;;;;5097941;28;19908;-71
2021/05/15 01:36:39;;;;;;;;;;;7.40;99.90;;;;;;5093102;28;19912;-71
2021/05/15 01:39:05;;;;;;;;;;;7.30;99.90;;;;;;5093132;28;20205;-71
2021/05/15 01:41:30;;;;;;;;;;;7.20;99.90;;;;;;5093165;28;19953;-71
2021/05/15 01:43:57;;;;;;;;;;;7.20;99.90;;;;;;5089822;28;19912;-71
2021/05/15 01:46:22;;;;;;;;;;;7.10;99.90;;;;;;5076341;28;19908;-71
2021/05/15 01:48:47;;;;;;;;;;;7.10;99.90;;;;;;5085317;28;19908;-71
2021/05/15 01:51:13;;;;;;;;;;;7.10;99.90;;;;;;5081805;28;19990;-73
2021/05/15 01:53:43;;;;;;;;;;;7.00;99.90;;;;;;5084364;28;20269;-71
2021/05/15 01:56:10;;;;;;;;;;;7.00;99.90;;;;;;5092576;28;20003;-71
2021/05/15 01:58:35;;;;;;;;;;;6.90;99.90;;;;;;5092939;28;19912;-74
2021/05/15 02:01:02;;;;;;;;;;;6.90;99.90;;;;;;5087085;28;19908;-71
2021/05/15 02:03:27;;;;;;;;;;;6.90;99.90;;;;;;5092884;28;19915;-72
2021/05/15 02:05:53;;;;;;;;;;;6.90;99.90;;;;;;5112720;28;19916;-71
2021/05/15 02:08:20;;;;;;;;;;;6.90;99.90;;;;;;5113094;28;19914;-71
2021/05/15 02:10:46;;;;;;;;;;;6.90;99.90;;;;;;5113193;28;19915;-71
2021/05/15 02:13:11;;;;;;;;;;;6.90;99.90;;;;;;5113129;28;19908;-71
2021/05/15 02:15:37;;;;;;;;;;;6.90;99.90;;;;;;5113481;28;19915;-71
2021/05/15 02:18:04;;;;;;;;;;;7.00;99.90;;;;;;5112840;28;20276;-71
2021/05/15 02:20:30;;;;;;;;;;;7.00;99.90;;;;;;5113070;28;19908;-71
2021/05/15 02:22:56;;;;;;;;;;;7.00;99.90;;;;;;5112715;28;19912;-71
2021/05/15 02:25:22;;;;;;;;;;;7.00;99.90;;;;;;5112893;28;19912;-74
2021/05/15 02:27:47;;;;;;;;;;;7.10;99.90;;;;;;5112539;28;19908;-71
2021/05/15 02:30:13;;;;;;;;;;;7.00;99.90;;;;;;5112998;28;19914;-71
2021/05/15 02:32:39;;;;;;;;;;;7.00;99.90;;;;;;5101906;28;19909;-72
2021/05/15 02:35:05;;;;;;;;;;;6.90;99.90;;;;;;5092324;28;20010;-74
2021/05/15 02:37:31;;;;;;;;;;;6.90;99.90;;;;;;5091357;28;19916;-72
2021/05/15 02:39:56;;;;;;;;;;;6.90;99.90;;;;;;5092299;28;19908;-71
2021/05/15 02:42:21;;;;;;;;;;;6.80;99.90;;;;;;5092282;28;19908;-71
2021/05/15 02:44:47;;;;;;;;;;;6.80;99.90;;;;;;5092122;28;20339;-71
2021/05/15 02:47:12;;;;;;;;;;;6.70;99.90;;;;;;5090245;28;19951;-74
2021/05/15 02:49:38;;;;;;;;;;;6.60;99.90;;;;;;5090923;28;19915;-71
2021/05/15 02:52:03;;;;;;;;;;;6.50;99.90;;;;;;5092115;28;19912;-71
2021/05/15 02:54:29;;;;;;;;;;;6.50;99.90;;;;;;5092195;28;19908;-71
2021/05/15 02:56:55;;;;;;;;;;;6.50;99.90;;;;;;5091765;28;19912;-73
2021/05/15 02:59:20;;;;;;;;;;;6.40;99.90;;;;;;5091762;28;19912;-70
2021/05/15 03:01:46;;;;;;;;;;;6.40;99.90;;;;;;5091855;28;19916;-71
2021/05/15 03:04:11;;;;;;;;;;;6.40;99.90;;;;;;5091444;28;19908;-71
2021/05/15 03:06:37;;;;;;;;;;;6.30;99.90;;;;;;5091148;28;20337;-70
2021/05/15 03:09:02;;;;;;;;;;;6.30;99.90;;;;;;5090066;28;19916;-70
2021/05/15 03:11:28;;;;;;;;;;;6.30;99.90;;;;;;5091414;28;19908;-71
2021/05/15 03:13:53;;;;;;;;;;;6.30;99.90;;;;;;5091251;28;19957;-71
2021/05/15 03:16:19;;;;;;;;;;;6.20;99.90;;;;;;5090875;28;19908;-71
2021/05/15 03:18:44;;;;;;;;;;;6.20;99.90;;;;;;5091284;28;19973;-71
2021/05/15 03:21:10;;;;;;;;;;;6.20;99.90;;;;;;5091515;28;19931;-72
2021/05/15 03:23:35;;;;;;;;;;;6.20;99.90;;;;;;5091381;28;20019;-74
2021/05/15 03:26:01;;;;;;;;;;;6.20;99.90;;;;;;5091408;28;20380;-71
2021/05/15 03:28:26;;;;;;;;;;;6.20;99.90;;;;;;5091570;28;19999;-72
2021/05/15 03:30:52;;;;;;;;;;;6.20;99.90;;;;;;5091634;28;19908;-71
2021/05/15 03:33:17;;;;;;;;;;;6.20;99.90;;;;;;5100086;28;19916;-72
2021/05/15 03:35:43;;;;;;;;;;;6.20;99.90;;;;;;5111430;28;19908;-71
2021/05/15 03:38:09;;;;;;;;;;;6.30;99.90;;;;;;5111547;28;19916;-71
2021/05/15 03:40:35;;;;;;;;;;;6.30;99.90;;;;;;5111878;28;19918;-71
2021/05/15 03:43:01;;;;;;;;;;;6.30;99.90;;;;;;5112508;28;19908;-71
2021/05/15 03:45:26;;;;;;;;;;;6.30;99.90;;;;;;5115956;28;19918;-72
2021/05/15 03:47:52;;;;;;;;;;;6.30;99.90;;;;;;5115716;28;19908;-71
2021/05/15 03:50:17;;;;;;;;;;;6.40;99.90;;;;;;5116045;28;19908;-71
2021/05/15 03:52:43;;;;;;;;;;;6.40;99.90;;;;;;5115765;28;19911;-71
2021/05/15 03:55:08;;;;;;;;;;;6.40;99.90;;;;;;5115740;28;19962;-72
2021/05/15 03:57:34;;;;;;;;;;;6.40;99.90;;;;;;5115335;28;20337;-70
2021/05/15 03:59:59;;;;;;;;;;;6.50;99.90;;;;;;5115808;28;19908;-70
2021/05/15 04:02:25;;;;;;;;;;;6.50;99.90;;;;;;5107194;28;20439;-71
2021/05/15 04:04:51;;;;;;;;;;;6.50;99.90;;;;;;5102185;28;19908;-73
2021/05/15 04:07:16;;;;;;;;;;;6.50;99.90;;;;;;5094753;28;20362;-71
2021/05/15 04:09:42;;;;;;;;;;;6.50;99.90;;;;;;5095113;28;19908;-70
2021/05/15 04:12:08;;;;;;;;;;;6.60;99.90;;;;;;5095247;28;20041;-70
2021/05/15 04:19:33;;;;;;;;;;;6.70;99.90;;;;;;5095324;28;19912;-72
2021/05/15 04:21:59;;;;;;;;;;;6.70;99.90;;;;;;5095031;28;19914;-71
2021/05/15 04:24:26;;;;;;;;;;;6.80;99.90;;;;;;5094933;28;19990;-70
2021/05/15 04:26:55;;;;;;;;;;;6.80;99.90;;;;;;5094664;28;20384;-71
2021/05/15 04:29:21;;;;;;;;;;;6.90;99.90;;;;;;5094881;28;20375;-74
2021/05/15 04:31:47;;;;;;;;;;;6.90;99.90;;;;;;5094738;28;20319;-73
2021/05/15 04:34:13;;;;;;;;;;;6.90;99.90;;;;;;5103061;28;19912;-71
2021/05/15 04:36:38;;;;;;;;;;;7.00;99.90;;;;;;5094224;28;20564;-71
2021/05/15 04:39:04;;;;;;;;;;;7.00;99.90;;;;;;5094423;28;20006;-71
2021/05/15 04:41:30;;;;;;;;;;;7.10;99.90;;;;;;5094663;28;20270;-71
2021/05/15 04:43:55;;;;;;;;;;;7.10;99.90;;;;;;5093278;28;19929;-73
2021/05/15 04:46:21;;;;;;;;;;;7.30;99.90;;;;;;5094217;28;20011;-71
2021/05/15 04:48:46;;;;;;;;;;;7.30;99.90;;;;;;5094362;28;19908;-71
2021/05/15 04:51:11;;;;;;;;;;;7.40;99.90;;;;;;5094434;28;19912;-71
2021/05/15 04:53:37;;;;;;;;;;;7.60;99.90;;;;;;5094200;28;19908;-71
2021/05/15 04:56:03;;;;;;;;;;;7.60;99.90;;;;;;5091904;28;19943;-71
2021/05/15 04:58:29;;;;;;;;;;;7.70;99.90;;;;;;5094167;28;19912;-71
2021/05/15 05:00:54;;;;;;;;;;;7.80;99.90;;;;;;5094230;28;20351;-71
2021/05/15 05:03:20;;;;;;;;;;;7.90;99.90;;;;;;5101064;28;19995;-72
2021/05/15 05:05:46;;;;;;;;;;;8.00;99.90;;;;;;5093661;28;20741;-74
2021/05/15 05:08:11;;;;;;;;;;;8.10;99.90;;;;;;5093967;28;19915;-71
2021/05/15 05:10:37;;;;;;;;;;;8.20;99.90;;;;;;5094120;28;19919;-71
2021/05/15 05:13:03;;;;;;;;;;;8.30;99.90;;;;;;5093876;28;20425;-71
2021/05/15 05:15:29;;;;;;;;;;;8.50;99.90;;;;;;5093962;28;19939;-71
2021/05/15 05:17:54;;;;;;;;;;;8.80;99.90;;;;;;5093436;28;19974;-72
2021/05/15 05:20:20;;;;;;;;;;;9.00;99.90;;;;;;5093904;28;19908;-71
2021/05/15 05:22:45;;;;;;;;;;;9.10;99.90;;;;;;5093728;28;20511;-71
2021/05/15 05:25:12;;;;;;;;;;;9.30;99.90;;;;;;5093703;28;19908;-71
2021/05/15 05:27:40;;;;;;;;;;;9.50;99.90;;;;;;5093294;28;20385;-71
2021/05/15 05:30:06;;;;;;;;;;;9.70;99.90;;;;;;5094197;28;20300;-71
2021/05/15 05:32:31;;;;;;;;;;;9.90;99.90;;;;;;5101939;28;19912;-71
2021/05/15 05:34:57;;;;;;;;;;;10.10;99.90;;;;;;5093645;28;19908;-71
2021/05/15 05:37:22;;;;;;;;;;;10.20;99.90;;;;;;5093126;28;19912;-73
2021/05/15 05:39:48;;;;;;;;;;;10.30;99.90;;;;;;5092058;28;19912;-71
2021/05/15 05:42:13;;;;;;;;;;;10.30;99.90;;;;;;5093581;28;19950;-71
2021/05/15 05:44:40;;;;;;;;;;;10.40;99.90;;;;;;5093390;28;20015;-72
2021/05/15 05:47:05;;;;;;;;;;;10.30;99.90;;;;;;5093023;28;19956;-72
2021/05/15 05:49:31;;;;;;;;;;;10.30;99.90;;;;;;5093404;28;19974;-72
2021/05/15 05:51:56;;;;;;;;;;;10.20;99.90;;;;;;5093332;28;19916;-71
2021/05/15 05:54:22;;;;;;;;;;;10.10;99.90;;;;;;5093050;28;20007;-71
2021/05/15 05:56:47;;;;;;;;;;;10.10;99.90;;;;;;5092766;28;19973;-72
2021/05/15 05:59:13;;;;;;;;;;;10.00;99.90;;;;;;5093084;28;19912;-72
2021/05/15 06:01:39;;;;;;;;;;;10.10;99.90;;;;;;5093014;28;19934;-71
2021/05/15 06:04:05;;;;;;;;;;;10.10;99.90;;;;;;5108337;28;19912;-71
2021/05/15 06:06:30;;;;;;;;;;;10.20;99.90;;;;;;5112004;28;20285;-71
2021/05/15 06:08:56;;;;;;;;;;;10.40;99.90;;;;;;5113226;28;19912;-72
2021/05/15 06:11:23;;;;;;;;;;;10.40;99.90;;;;;;5113454;28;19912;-72
2021/05/15 06:13:48;;;;;;;;;;;10.60;99.90;;;;;;5111752;28;19931;-71
2021/05/15 06:16:14;;;;;;;;;;;11.00;99.90;;;;;;5112816;28;20388;-72
2021/05/15 06:18:39;;;;;;;;;;;11.40;99.90;;;;;;5111863;28;19919;-74
2021/05/15 06:21:05;;;;;;;;;;;11.60;99.90;;;;;;5113128;28;19918;-72
2021/05/15 06:23:30;;;;;;;;;;;11.70;99.90;;;;;;5112849;28;19907;-71
2021/05/15 06:25:56;;;;;;;;;;;11.80;99.90;;;;;;5112612;28;19908;-72
2021/05/15 06:28:21;;;;;;;;;;;11.90;99.90;;;;;;5112964;28;20369;-74
2021/05/15 06:30:47;;;;;;;;;;;12.00;99.90;;;;;;5112954;28;20011;-72
2021/05/15 06:33:13;;;;;;;;;;;12.10;99.90;;;;;;5112664;28;19908;-72
2021/05/15 06:35:38;;;;;;;;;;;12.20;99.90;;;;;;5112249;28;19915;-74
2021/05/15 06:38:05;;;;;;;;;;;12.20;99.90;;;;;;5112195;28;20323;-71
2021/05/15 06:40:31;;;;;;;;;;;12.40;99.90;;;;;;5112854;28;19980;-72
2021/05/15 06:42:57;;;;;;;;;;;12.50;99.90;;;;;;5112584;28;20284;-71
2021/05/15 06:45:22;;;;;;;;;;;12.60;99.90;;;;;;5112745;28;19907;-73
2021/05/15 06:47:48;;;;;;;;;;;12.70;99.90;;;;;;5110509;28;19931;-72
2021/05/15 06:50:13;;;;;;;;;;;12.80;99.90;;;;;;5112647;28;19955;-72
2021/05/15 06:52:39;;;;;;;;;;;13.00;99.90;;;;;;5112495;28;19908;-72
2021/05/15 06:55:05;;;;;;;;;;;13.10;99.90;;;;;;5112350;28;20352;-72
2021/05/15 06:57:31;;;;;;;;;;;13.10;99.90;;;;;;5111808;28;19914;-72
2021/05/15 06:59:56;;;;;;;;;;;13.10;99.90;;;;;;5101129;28;20007;-72
2021/05/15 07:02:22;;;;;;;;;;;13.10;99.90;;;;;;5082969;28;19930;-72
2021/05/15 07:04:50;;;;;;;;;;;13.10;99.90;;;;;;5084324;28;19916;-71
2021/05/15 07:07:15;;;;;;;;;;;13.10;99.90;;;;;;5089825;28;19908;-72
2021/05/15 07:09:41;;;;;;;;;;;12.90;99.90;;;;;;5091734;28;20023;-72
2021/05/15 07:12:06;;;;;;;;;;;12.90;99.90;;;;;;5091489;28;19912;-71
2021/05/15 07:14:32;;;;;;;;;;;12.90;99.90;;;;;;5091712;28;20377;-72
2021/05/15 07:16:58;;;;;;;;;;;13.00;99.90;;;;;;5090427;28;20373;-72
2021/05/15 07:19:23;;;;;;;;;;;13.00;99.90;;;;;;5091144;28;19919;-72
2021/05/15 07:21:48;;;;;;;;;;;13.00;99.90;;;;;;5091618;28;19908;-72
2021/05/15 07:24:14;;;;;;;;;;;13.00;99.90;;;;;;5091498;28;20385;-72
2021/05/15 07:26:39;;;;;;;;;;;13.00;99.90;;;;;;5090855;28;19915;-72
2021/05/15 07:29:05;;;;;;;;;;;13.00;99.90;;;;;;5091559;28;20479;-74
2021/05/15 07:31:31;;;;;;;;;;;13.00;99.90;;;;;;5093654;28;19915;-71
2021/05/15 07:33:56;;;;;;;;;;;13.10;99.90;;;;;;5111610;28;19907;-72
2021/05/15 07:36:22;;;;;;;;;;;13.20;99.90;;;;;;5111160;28;20375;-72
2021/05/15 07:38:48;;;;;;;;;;;13.30;99.90;;;;;;5110191;28;19916;-72
2021/05/15 07:41:15;;;;;;;;;;;13.40;99.90;;;;;;5111406;28;20421;-71
2021/05/15 07:43:41;;;;;;;;;;;13.40;99.90;;;;;;5111714;28;19907;-72
2021/05/15 07:46:06;;;;;;;;;;;13.40;99.90;;;;;;5110997;28;19999;-71
2021/05/15 07:48:39;;;;;;;;;;;13.30;99.90;;;;;;5111185;28;19908;-72
2021/05/15 07:51:05;;;;;;;;;;;13.30;99.90;;;;;;5111528;28;20396;-72
2021/05/15 07:53:31;;;;;;;;;;;13.30;99.90;;;;;;5110244;28;19999;-72
2021/05/15 07:55:57;;;;;;;;;;;13.40;99.90;;;;;;5111072;28;19943;-72
2021/05/15 07:58:22;;;;;;;;;;;13.50;99.90;;;;;;5111011;28;20376;-71
2021/05/15 08:00:48;;;;;;;;;;;13.50;99.90;;;;;;5111527;28;19952;-74
2021/05/15 08:03:13;;;;;;;;;;;13.50;99.90;;;;;;5101615;28;19950;-72
2021/05/15 08:05:39;;;;;;;;;;;13.60;99.90;;;;;;5090661;28;19915;-72
2021/05/15 08:08:05;;;;;;;;;;;13.70;99.90;;;;;;5090945;28;19969;-72
2021/05/15 08:10:31;;;;;;;;;;;13.80;99.90;;;;;;5089492;28;20365;-72
2021/05/15 08:12:57;;;;;;;;;;;13.80;99.90;;;;;;5090893;28;19915;-72
2021/05/15 08:15:22;;;;;;;;;;;13.90;99.90;;;;;;5091139;28;20361;-73
2021/05/15 08:17:48;;;;;;;;;;;14.00;99.90;;;;;;5089997;28;19908;-74
2021/05/15 08:20:14;;;;;;;;;;;14.20;99.90;;;;;;5091141;28;20568;-72
2021/05/15 08:22:39;;;;;;;;;;;14.30;99.90;;;;;;5091163;28;19908;-72
2021/05/15 08:25:06;;;;;;;;;;;14.40;99.90;;;;;;5090852;28;19916;-72
2021/05/15 08:27:34;;;;;;;;;;;14.40;99.90;;;;;;5090115;28;19908;-72
2021/05/15 08:30:00;;;;;;;;;;;14.50;99.90;;;;;;5091497;28;19908;-73
2021/05/15 08:32:25;;;;;;;;;;;14.60;99.90;;;;;;5088582;28;19931;-72
2021/05/15 08:34:51;;;;;;;;;;;14.80;99.90;;;;;;5107771;28;19908;-72
2021/05/15 08:37:16;;;;;;;;;;;14.90;99.90;;;;;;5112104;28;20368;-72
2021/05/15 08:39:42;;;;;;;;;;;15.00;99.90;;;;;;5112609;28;19934;-72
2021/05/15 08:42:07;;;;;;;;;;;15.10;99.90;;;;;;5112039;28;19947;-72
2021/05/15 08:44:36;;;;;;;;;;;15.20;99.90;;;;;;5111286;28;20225;-73
2021/05/15 08:47:02;;;;;;;;;;;15.50;99.90;;;;;;5110464;28;19965;-74
2021/05/15 08:49:29;;;;;;;;;;;15.90;99.90;;;;;;5111577;28;19907;-72
2021/05/15 08:51:54;;;;;;;;;;;16.10;99.90;;;;;;5112239;28;19912;-72
2021/05/15 08:54:21;;;;;;;;;;;16.20;99.90;;;;;;5111124;28;20198;-72
2021/05/15 08:56:48;;;;;;;;;;;16.00;99.80;;;;;;5111948;28;19908;-72
2021/05/15 08:59:14;;;;;;;;;;;16.00;99.90;;;;;;5114187;28;19918;-72
2021/05/15 09:01:41;;;;;;;;;;;16.20;99.90;;;;;;5099769;28;20002;-73
2021/05/15 09:04:06;;;;;;;;;;;16.30;99.30;;;;;;5093438;28;20361;-72
2021/05/15 09:06:32;;;;;;;;;;;16.30;99.90;;;;;;5093329;28;19970;-72
2021/05/15 09:08:57;;;;;;;;;;;16.30;99.30;;;;;;5093576;28;19931;-73
2021/05/15 09:11:23;;;;;;;;;;;16.20;99.20;;;;;;5093897;28;19918;-72
2021/05/15 09:13:49;;;;;;;;;;;16.10;99.90;;;;;;5093755;28;19908;-72
2021/05/15 09:16:15;;;;;;;;;;;16.10;99.90;;;;;;5092618;28;20407;-72
2021/05/15 09:18:41;;;;;;;;;;;16.30;99.90;;;;;;5093473;28;19916;-72
2021/05/15 09:21:25;;;;;;;;;;;16.80;99.90;;;;;;5093666;28;19909;-73
2021/05/15 09:23:51;;;;;;;;;;;17.30;99.90;;;;;;5092066;28;19956;-73
2021/05/15 09:26:20;;;;;;;;;;;17.70;98.80;;;;;;5092727;28;20308;-72
2021/05/15 09:28:47;;;;;;;;;;;18.00;97.70;;;;;;5093381;28;19908;-73
2021/05/15 09:31:14;;;;;;;;;;;18.00;97.50;;;;;;5088662;28;20011;-72
2021/05/15 09:33:41;;;;;;;;;;;17.90;96.90;;;;;;5093199;28;19908;-72
2021/05/15 09:36:13;;;;;;;;;;;17.90;97.70;;;;;;5092426;28;19915;-73
2021/05/15 09:38:39;;;;;;;;;;;18.00;97.20;;;;;;5093063;28;19916;-72
2021/05/15 09:41:04;;;;;;;;;;;18.10;97.20;;;;;;5092974;28;19922;-73
2021/05/15 09:43:30;;;;;;;;;;;18.30;95.60;;;;;;5093535;28;20322;-72
2021/05/15 09:45:55;;;;;;;;;;;18.20;96.00;;;;;;5092455;28;20436;-73
2021/05/15 09:48:36;;;;;;;;;;;18.10;95.40;;;;;;5092983;28;19914;-73
2021/05/15 09:51:15;;;;;;;;;;;18.10;96.90;;;;;;5093181;28;19908;-72
2021/05/15 09:53:41;;;;;;;;;;;18.10;96.10;;;;;;5092877;28;19909;-73
2021/05/15 09:56:07;;;;;;;;;;;17.90;96.10;;;;;;5092027;28;19908;-73
2021/05/15 09:58:32;;;;;;;;;;;17.70;95.90;;;;;;5092649;28;19912;-74
2021/05/15 10:00:58;;;;;;;;;;;17.50;95.50;;;;;;5089554;28;19912;-73
2021/05/15 10:03:28;;;;;;;;;;;17.30;96.20;;;;;;5108413;28;19912;-72
2021/05/15 10:06:02;;;;;;;;;;;17.10;96.40;;;;;;5112526;28;19907;-73
2021/05/15 10:08:30;;;;;;;;;;;16.90;96.50;;;;;;5112767;28;19907;-72
2021/05/15 10:10:55;;;;;;;;;;;16.80;97.20;;;;;;5112973;28;19916;-73
2021/05/15 10:13:21;;;;;;;;;;;16.70;96.80;;;;;;5112812;28;19922;-74
2021/05/15 10:15:47;;;;;;;;;;;16.70;97.70;;;;;;5110725;28;19908;-73
2021/05/15 10:18:16;;;;;;;;;;;16.80;96.70;;;;;;5112615;28;19957;-72
2021/05/15 10:20:42;;;;;;;;;;;16.90;96.60;;;;;;5112702;28;19914;-72
2021/05/15 10:23:23;;;;;;;;;;;16.80;95.60;;;;;;5112477;28;20459;-73
2021/05/15 10:25:50;;;;;;;;;;;16.70;96.90;;;;;;5111859;28;20006;-74
2021/05/15 10:28:25;;;;;;;;;;;16.70;96.60;;;;;;5112648;28;19908;-73
2021/05/15 10:31:01;;;;;;;;;;;16.70;96.30;;;;;;5110409;28;19908;-72
2021/05/15 10:33:30;;;;;;;;;;;16.80;96.00;;;;;;5108715;28;19908;-73
2021/05/15 10:35:56;;;;;;;;;;;16.70;95.00;;;;;;5091552;28;20332;-73
2021/05/15 10:38:29;;;;;;;;;;;16.50;94.80;;;;;;5091833;28;19965;-74
2021/05/15 10:40:54;;;;;;;;;;;16.30;94.70;;;;;;5092042;28;20397;-73
2021/05/15 10:43:32;;;;;;;;;;;16.30;93.80;;;;;;5091870;28;20011;-72
2021/05/15 10:45:58;;;;;;;;;;;16.30;95.20;;;;;;5091161;28;19912;-73
2021/05/15 10:48:27;;;;;;;;;;;16.20;94.80;;;;;;5091981;28;19991;-72
2021/05/15 10:50:54;;;;;;;;;;;16.10;95.20;;;;;;5091987;28;19912;-72
2021/05/15 10:53:24;;;;;;;;;;;15.80;94.50;;;;;;5091186;28;20365;-74
2021/05/15 10:56:12;;;;;;;;;;;15.60;95.70;;;;;;5090884;28;19915;-72
2021/05/15 10:58:39;;;;;;;;;;;15.40;95.60;;;;;;5091515;28;19981;-74
2021/05/15 11:01:08;;;;;;;;;;;15.30;96.10;;;;;;5087596;28;19935;-73
2021/05/15 11:03:34;;;;;;;;;;;15.30;96.70;;;;;;5090465;28;19908;-72
2021/05/15 11:06:11;;;;;;;;;;;15.40;97.00;;;;;;5091175;28;20172;-72
2021/05/15 11:08:37;;;;;;;;;;;15.40;97.00;;;;;;5091529;28;19955;-73
2021/05/15 11:11:06;;;;;;;;;;;15.50;95.90;;;;;;5091470;28;19935;-74
2021/05/15 11:13:44;;;;;;;;;;;15.40;96.30;;;;;;5091449;28;19908;-72
2021/05/15 11:16:09;;;;;;;;;;;15.30;98.50;;;;;;5090661;28;19908;-72
2021/05/15 11:18:36;;;;;;;;;;;15.10;99.30;;;;;;5091360;28;19930;-72
2021/05/15 11:21:04;;;;;;;;;;;14.70;99.30;;;;;;5091516;28;19908;-72
2021/05/15 11:23:29;;;;;;;;;;;14.40;99.90;;;;;;5091066;28;19908;-72
2021/05/15 11:25:57;;;;;;;;;;;14.40;99.90;;;;;;5090316;28;19919;-73
2021/05/15 11:28:23;;;;;;;;;;;14.60;99.90;;;;;;5091154;28;19908;-75
2021/05/15 11:30:49;;;;;;;;;;;15.00;99.90;;;;;;5090122;28;19908;-73
2021/05/15 11:33:24;;;;;;;;;;;15.30;99.90;;;;;;5107819;28;19957;-72
2021/05/15 11:35:54;;;;;;;;;;;15.70;99.90;;;;;;5110759;28;20349;-73
2021/05/15 11:38:21;;;;;;;;;;;16.10;99.90;;;;;;5111241;28;19922;-73
2021/05/15 11:40:46;;;;;;;;;;;16.50;99.90;;;;;;5110105;28;19908;-72
2021/05/15 11:43:23;;;;;;;;;;;16.80;99.90;;;;;;5111313;28;19914;-72
2021/05/15 11:45:50;;;;;;;;;;;16.80;98.60;;;;;;5110789;28;19907;-72
2021/05/15 11:48:20;;;;;;;;;;;17.00;99.90;;;;;;5111415;28;20421;-72
2021/05/15 11:51:02;;;;;;;;;;;17.30;99.90;;;;;;5111399;28;19911;-72
2021/05/15 11:53:29;;;;;;;;;;;17.60;99.90;;;;;;5111311;28;20002;-72
2021/05/15 11:55:55;;;;;;;;;;;18.00;97.90;;;;;;5109312;28;19939;-72
2021/05/15 11:58:20;;;;;;;;;;;18.20;96.40;;;;;;5111257;28;19912;-72
2021/05/15 12:00:46;;;;;;;;;;;18.20;96.30;;;;;;5110041;28;19968;-72
2021/05/15 12:03:18;;;;;;;;;;;18.20;94.50;;;;;;5090665;28;19908;-72
2021/05/15 12:05:43;;;;;;;;;;;18.20;93.20;;;;;;5092303;28;20002;-75
2021/05/15 12:08:12;;;;;;;;;;;17.90;92.70;;;;;;5094978;28;19991;-72
2021/05/15 12:10:39;;;;;;;;;;;17.90;94.80;;;;;;5094929;28;20280;-72
2021/05/15 12:13:05;;;;;;;;;;;18.00;94.90;;;;;;5094869;28;19918;-72
2021/05/15 12:15:31;;;;;;;;;;;18.00;94.50;;;;;;5094380;28;19908;-73
2021/05/15 12:18:00;;;;;;;;;;;18.10;94.70;;;;;;5094291;28;19912;-73
2021/05/15 12:20:29;;;;;;;;;;;18.20;94.10;;;;;;5094832;28;20166;-72
2021/05/15 12:23:15;;;;;;;;;;;18.30;94.60;;;;;;5094785;28;19957;-72
2021/05/15 12:25:42;;;;;;;;;;;18.40;93.20;;;;;;5094201;28;19908;-72
2021/05/15 12:28:20;;;;;;;;;;;18.30;92.30;;;;;;5094476;28;19943;-72
2021/05/15 12:30:46;;;;;;;;;;;18.20;93.00;;;;;;5094470;28;19908;-74
2021/05/15 12:33:15;;;;;;;;;;;18.10;93.10;;;;;;5094198;28;19914;-73
2021/05/15 12:35:41;;;;;;;;;;;18.00;93.40;;;;;;5073625;28;19991;-74
2021/05/15 12:38:08;;;;;;;;;;;17.90;92.60;;;;;;5073904;28;20433;-73
2021/05/15 12:40:34;;;;;;;;;;;17.80;92.50;;;;;;5073475;28;19953;-72
2021/05/15 12:43:10;;;;;;;;;;;17.70;93.50;;;;;;5073965;28;20283;-72
2021/05/15 12:45:36;;;;;;;;;;;17.60;93.80;;;;;;5073598;28;19935;-72
2021/05/15 12:48:02;;;;;;;;;;;17.50;92.80;;;;;;5073154;28;19908;-72
2021/05/15 12:50:28;;;;;;;;;;;17.40;94.00;;;;;;5073965;28;20373;-72
2021/05/15 12:53:09;;;;;;;;;;;17.40;93.80;;;;;;5072582;28;19908;-72
2021/05/15 12:55:46;;;;;;;;;;;17.60;94.10;;;;;;5073010;28;19912;-72
2021/05/15 12:58:11;;;;;;;;;;;17.80;92.70;;;;;;5073722;28;19935;-73
2021/05/15 13:00:37;;;;;;;;;;;18.00;92.10;;;;;;5073612;28;20361;-74
2021/05/15 13:03:04;;;;;;;;;;;18.00;92.20;;;;;;5088584;28;19908;-72
2021/05/15 13:05:33;;;;;;;;;;;17.90;91.60;;;;;;5093943;28;20380;-72
2021/05/15 13:08:06;;;;;;;;;;;17.80;91.40;;;;;;5093283;28;19961;-72
2021/05/15 13:10:31;;;;;;;;;;;17.60;91.70;;;;;;5093433;28;19908;-73
2021/05/15 13:12:57;;;;;;;;;;;17.40;91.70;;;;;;5093691;28;20262;-74
2021/05/15 13:15:22;;;;;;;;;;;17.20;91.60;;;;;;5093371;28;20293;-72
2021/05/15 13:17:48;;;;;;;;;;;17.00;92.10;;;;;;5092593;28;19951;-72
2021/05/15 13:20:13;;;;;;;;;;;16.70;91.90;;;;;;5093391;28;20375;-73
2021/05/15 13:22:39;;;;;;;;;;;16.50;92.50;;;;;;5093615;28;19908;-72
2021/05/15 13:25:05;;;;;;;;;;;16.40;93.30;;;;;;5092049;28;20247;-72
2021/05/15 13:27:30;;;;;;;;;;;16.30;93.20;;;;;;5092850;28;19987;-72
2021/05/15 13:29:56;;;;;;;;;;;16.20;94.00;;;;;;5093400;28;19962;-72
2021/05/15 13:32:22;;;;;;;;;;;16.20;94.90;;;;;;5093922;28;19956;-72
2021/05/15 13:34:48;;;;;;;;;;;16.30;95.70;;;;;;5112868;28;19922;-72
2021/05/15 13:37:13;;;;;;;;;;;16.50;93.80;;;;;;5112792;28;19919;-72
2021/05/15 13:39:39;;;;;;;;;;;16.50;93.50;;;;;;5113447;28;20329;-72
2021/05/15 13:42:04;;;;;;;;;;;16.60;94.20;;;;;;5113611;28;20006;-72
2021/05/15 13:44:30;;;;;;;;;;;16.70;94.60;;;;;;5113296;28;19908;-73
2021/05/15 13:46:55;;;;;;;;;;;16.80;94.80;;;;;;5113032;28;19915;-73
2021/05/15 13:49:21;;;;;;;;;;;16.90;93.60;;;;;;5113916;28;20367;-72
2021/05/15 13:51:46;;;;;;;;;;;16.90;93.80;;;;;;5113774;28;19915;-73
2021/05/15 13:54:12;;;;;;;;;;;16.90;94.00;;;;;;5113074;28;20021;-75
2021/05/15 13:56:38;;;;;;;;;;;16.90;94.50;;;;;;5112705;28;20386;-75
2021/05/15 13:59:04;;;;;;;;;;;16.90;95.00;;;;;;5113184;28;20387;-73
2021/05/15 14:01:29;;;;;;;;;;;16.90;94.30;;;;;;5110985;28;19908;-72
2021/05/15 14:03:55;;;;;;;;;;;17.10;94.50;;;;;;5092471;28;19912;-73
2021/05/15 14:06:20;;;;;;;;;;;17.20;95.00;;;;;;5091825;28;20002;-76
2021/05/15 14:08:46;;;;;;;;;;;17.30;94.10;;;;;;5092490;28;20353;-72
2021/05/15 14:11:11;;;;;;;;;;;17.30;93.90;;;;;;5092486;28;19922;-72
2021/05/15 14:13:37;;;;;;;;;;;17.30;93.80;;;;;;5092454;28;20345;-72
2021/05/15 14:16:02;;;;;;;;;;;17.30;93.70;;;;;;5091438;28;19908;-74
2021/05/15 14:18:28;;;;;;;;;;;17.30;94.60;;;;;;5092100;28;20549;-73
2021/05/15 14:20:53;;;;;;;;;;;17.30;93.90;;;;;;5092405;28;20285;-72
2021/05/15 14:23:19;;;;;;;;;;;17.20;94.10;;;;;;5092259;28;20292;-72